createdAt,value
2023-04-23T00:00:13.514Z,88.80
2023-04-23T00:05:19.100Z,88.50
2023-04-23T00:10:22.474Z,89.00
2023-04-23T00:15:25.262Z,88.60
2023-04-23T00:20:27.740Z,88.70
2023-04-23T00:25:30.293Z,89.60
2023-04-23T00:30:32.896Z,90.40
2023-04-23T00:35:35.334Z,90.10
2023-04-23T00:40:37.789Z,89.90
2023-04-23T00:45:40.267Z,90.50
2023-04-23T00:50:43.309Z,90.80
2023-04-23T00:55:46.683Z,91.30
2023-04-23T01:00:51.719Z,91.00
2023-04-23T01:05:54.268Z,90.50
2023-04-23T01:10:57.391Z,90.80
2023-04-23T01:16:00.162Z,90.40
2023-04-23T01:21:05.100Z,90.70
2023-04-23T01:26:07.838Z,90.50
2023-04-23T01:31:14.611Z,90.80
2023-04-23T01:36:19.256Z,90.80
2023-04-23T01:41:22.359Z,90.90
2023-04-23T01:46:25.642Z,91.00
2023-04-23T01:51:29.939Z,91.00
2023-04-23T01:56:35.766Z,91.20
2023-04-23T02:01:48.478Z,91.60
2023-04-23T02:06:51.772Z,91.30
2023-04-23T02:11:54.221Z,91.40
2023-04-23T02:16:57.835Z,91.00
2023-04-23T02:22:00.599Z,91.10
2023-04-23T02:27:03.576Z,91.40
2023-04-23T02:32:06.396Z,91.00
2023-04-23T02:37:08.869Z,90.90
2023-04-23T02:42:11.858Z,90.90
2023-04-23T02:47:14.294Z,90.90
2023-04-23T02:52:16.824Z,90.60
2023-04-23T02:57:19.890Z,91.10
2023-04-23T03:02:22.468Z,90.60
2023-04-23T03:07:25.248Z,91.20
2023-04-23T03:12:27.693Z,91.40
2023-04-23T03:17:30.732Z,91.70
2023-04-23T03:22:33.459Z,91.40
2023-04-23T03:27:37.878Z,91.90
2023-04-23T03:32:41.581Z,92.20
2023-04-23T03:37:45.086Z,92.70
2023-04-23T03:42:48.671Z,92.30
2023-04-23T03:47:53.621Z,91.80
2023-04-23T03:52:56.184Z,91.90
2023-04-23T03:58:18.669Z,91.40
2023-04-23T04:03:22.953Z,90.00
2023-04-23T04:08:27.140Z,90.20
2023-04-23T04:13:29.595Z,89.40
2023-04-23T04:18:32.136Z,88.30
2023-04-23T04:23:35.122Z,89.10
2023-04-23T04:28:37.790Z,88.70
2023-04-23T04:33:40.564Z,87.80
2023-04-23T04:38:43.974Z,86.70
2023-04-23T04:43:46.937Z,83.80
2023-04-23T04:48:49.576Z,81.50
2023-04-23T04:53:52.055Z,80.30
2023-04-23T04:58:55.074Z,80.10
2023-04-23T05:03:58.110Z,80.30
2023-04-23T05:09:00.820Z,79.80
2023-04-23T05:14:04.629Z,79.30
2023-04-23T05:19:08.274Z,79.10
2023-04-23T05:24:11.013Z,78.60
2023-04-23T05:29:17.898Z,79.40
2023-04-23T05:34:20.439Z,79.00
2023-04-23T05:39:22.867Z,78.00
2023-04-23T05:44:25.357Z,77.80
2023-04-23T05:49:27.783Z,78.00
2023-04-23T05:54:30.219Z,78.40
2023-04-23T05:59:32.780Z,78.80
2023-04-23T06:04:35.502Z,79.00
2023-04-23T06:09:38.249Z,78.30
2023-04-23T06:14:40.918Z,77.80
2023-04-23T06:19:43.548Z,78.50
2023-04-23T06:24:46.042Z,77.90
2023-04-23T06:29:48.573Z,77.60
2023-04-23T06:35:00.875Z,77.70
2023-04-23T06:40:05.187Z,77.30
2023-04-23T06:45:07.989Z,77.00
2023-04-23T06:50:10.745Z,76.30
2023-04-23T06:55:13.258Z,75.60
2023-04-23T07:00:16.492Z,74.40
2023-04-23T07:05:19.467Z,74.70
2023-04-23T07:10:22.148Z,73.70
2023-04-23T07:15:24.694Z,71.50
2023-04-23T07:20:27.126Z,70.10
2023-04-23T07:25:29.751Z,68.40
2023-04-23T07:30:32.205Z,68.30
2023-04-23T07:35:34.728Z,66.50
2023-04-23T07:40:37.194Z,64.30
2023-04-23T07:45:39.826Z,61.90
2023-04-23T07:50:42.712Z,58.90
2023-04-23T07:55:45.342Z,58.60
2023-04-23T08:00:48.358Z,58.40
2023-04-23T08:05:51.129Z,58.00
2023-04-23T08:10:53.574Z,56.40
2023-04-23T08:15:56.043Z,55.90
2023-04-23T08:20:58.859Z,55.60
2023-04-23T08:26:02.376Z,55.20
2023-04-23T08:31:15.205Z,56.10
2023-04-23T08:36:26.894Z,56.30
2023-04-23T08:41:38.808Z,54.70
2023-04-23T08:46:43.973Z,54.70
2023-04-23T08:51:52.311Z,54.40
2023-04-23T08:56:58.771Z,54.70
2023-04-23T09:02:08.470Z,54.60
2023-04-23T09:07:14.793Z,53.70
2023-04-23T09:12:17.498Z,53.30
2023-04-23T09:17:21.098Z,52.50
2023-04-23T09:22:47.395Z,51.60
2023-04-23T09:27:51.680Z,51.50
2023-04-23T09:32:54.320Z,52.10
2023-04-23T09:37:56.981Z,50.70
2023-04-23T09:42:59.415Z,48.50
2023-04-23T09:48:02.396Z,48.40
2023-04-23T09:53:07.168Z,47.50
2023-04-23T09:58:15.769Z,49.60
2023-04-23T10:03:28.016Z,48.90
2023-04-23T10:08:32.617Z,47.70
2023-04-23T10:13:36.450Z,43.50
2023-04-23T10:18:39.461Z,43.00
2023-04-23T10:23:44.375Z,41.20
2023-04-23T10:28:49.294Z,41.10
2023-04-23T10:33:58.685Z,40.90
2023-04-23T10:39:07.960Z,40.20
2023-04-23T10:44:17.293Z,39.00
2023-04-23T10:49:22.141Z,38.20
2023-04-23T10:54:32.631Z,37.80
2023-04-23T10:59:36.254Z,39.60
2023-04-23T11:04:46.654Z,38.70
2023-04-23T11:09:50.392Z,36.80
2023-04-23T11:14:55.098Z,38.00
2023-04-23T11:20:14.266Z,37.70
2023-04-23T11:25:20.395Z,37.90
2023-04-23T11:30:25.039Z,37.80
2023-04-23T11:35:28.679Z,37.20
2023-04-23T11:40:33.107Z,38.90
2023-04-23T11:45:35.557Z,38.70
2023-04-23T11:50:39.117Z,38.30
2023-04-23T11:55:44.191Z,37.30
2023-04-23T12:00:46.672Z,38.60
2023-04-23T12:05:49.533Z,39.90
2023-04-23T12:10:53.967Z,41.50
2023-04-23T12:15:59.083Z,42.50
2023-04-23T12:21:11.676Z,42.90
2023-04-23T12:26:15.992Z,43.30
2023-04-23T12:31:29.519Z,43.80
2023-04-23T12:36:32.563Z,46.40
2023-04-23T12:41:35.076Z,46.70
2023-04-23T12:46:37.532Z,47.40
2023-04-23T12:51:39.986Z,50.20
2023-04-23T12:56:42.486Z,56.30
2023-04-23T13:01:45.050Z,55.60
2023-04-23T13:06:49.573Z,56.60
2023-04-23T13:11:52.291Z,55.50
2023-04-23T13:16:54.882Z,56.10
2023-04-23T13:21:59.046Z,55.20
2023-04-23T13:27:02.211Z,54.40
2023-04-23T13:32:05.177Z,53.80
2023-04-23T13:37:09.474Z,52.20
2023-04-23T13:42:14.304Z,52.30
2023-04-23T13:47:17.475Z,52.00
2023-04-23T13:52:21.391Z,52.90
2023-04-23T13:57:25.504Z,55.30
2023-04-23T14:02:28.374Z,55.60
2023-04-23T14:07:31.482Z,56.10
2023-04-23T14:12:34.207Z,56.40
2023-04-23T14:17:37.766Z,72.90
2023-04-23T14:22:40.903Z,92.70
2023-04-23T14:27:50.170Z,99.90
2023-04-23T14:32:53.996Z,99.90
2023-04-23T14:37:56.578Z,94.40
2023-04-23T14:43:08.165Z,99.10
2023-04-23T14:48:17.280Z,93.10
2023-04-23T14:53:19.935Z,89.10
2023-04-23T14:58:22.368Z,85.20
2023-04-23T15:03:26.766Z,85.30
2023-04-23T15:08:30.048Z,91.50
2023-04-23T15:13:46.909Z,90.10
2023-04-23T15:18:49.369Z,92.70
2023-04-23T15:23:54.705Z,91.60
2023-04-23T15:28:58.932Z,91.60
2023-04-23T15:34:01.837Z,92.60
2023-04-23T15:39:04.365Z,92.60
2023-04-23T15:44:10.924Z,92.10
2023-04-23T15:49:13.487Z,90.60
2023-04-23T15:54:15.933Z,94.70
2023-04-23T15:59:18.340Z,95.10
2023-04-23T16:04:20.962Z,96.40
2023-04-23T16:09:23.839Z,97.00
2023-04-23T16:14:26.499Z,96.30
2023-04-23T16:19:29.345Z,97.20
2023-04-23T16:24:31.911Z,99.50
2023-04-23T16:29:34.321Z,98.90
2023-04-23T16:34:36.746Z,99.90
2023-04-23T16:39:39.248Z,99.90
2023-04-23T16:44:42.005Z,99.90
2023-04-23T16:49:44.573Z,99.90
2023-04-23T16:54:49.459Z,99.90
2023-04-23T16:59:52.792Z,99.90
2023-04-23T17:04:56.437Z,99.90
2023-04-23T17:09:59.312Z,99.90
2023-04-23T17:15:01.769Z,99.90
2023-04-23T17:20:08.157Z,99.90
2023-04-23T17:25:10.910Z,99.90
2023-04-23T17:30:13.705Z,99.90
2023-04-23T17:35:16.261Z,99.90
2023-04-23T17:40:18.997Z,99.90
2023-04-23T17:45:21.718Z,99.90
2023-04-23T17:50:24.266Z,99.90
2023-04-23T17:55:26.925Z,99.90
2023-04-23T18:00:29.439Z,99.90
2023-04-23T18:05:32.077Z,99.90
2023-04-23T18:10:35.191Z,99.90
2023-04-23T18:15:38.490Z,99.90
2023-04-23T18:20:40.910Z,99.90
2023-04-23T18:25:43.537Z,99.90
2023-04-23T18:30:46.241Z,99.90
2023-04-23T18:35:48.736Z,99.90
2023-04-23T18:40:51.436Z,99.90
2023-04-23T18:45:53.936Z,99.90
2023-04-23T18:50:57.949Z,99.90
2023-04-23T18:56:00.387Z,99.90
2023-04-23T19:01:03.052Z,99.90
2023-04-23T19:06:07.866Z,99.90
2023-04-23T19:11:10.608Z,99.90
2023-04-23T19:16:13.151Z,99.90
2023-04-23T19:21:15.627Z,99.90
2023-04-23T19:26:18.036Z,99.90
2023-04-23T19:31:20.617Z,99.90
2023-04-23T19:36:23.180Z,99.90
2023-04-23T19:41:26.220Z,99.90
2023-04-23T19:46:28.800Z,99.90
2023-04-23T19:51:35.499Z,99.90
2023-04-23T19:56:37.961Z,99.90
2023-04-23T20:01:40.963Z,99.90
2023-04-23T20:06:43.472Z,99.90
2023-04-23T20:11:46.458Z,99.90
2023-04-23T20:16:49.073Z,99.90
2023-04-23T20:21:52.426Z,99.90
2023-04-23T20:26:54.823Z,99.90
2023-04-23T20:31:57.459Z,99.90
2023-04-23T20:37:00.259Z,99.90
2023-04-23T20:42:03.201Z,99.90
2023-04-23T20:47:08.496Z,99.90
2023-04-23T20:52:12.382Z,99.90
2023-04-23T20:57:14.860Z,99.90
2023-04-23T21:02:17.431Z,99.90
2023-04-23T21:07:20.003Z,99.90
2023-04-23T21:12:23.372Z,99.90
2023-04-23T21:17:25.859Z,99.90
2023-04-23T21:22:28.961Z,99.90
2023-04-23T21:27:31.603Z,99.90
2023-04-23T21:32:34.128Z,99.90
2023-04-23T21:37:38.032Z,99.90
2023-04-23T21:42:40.734Z,99.90
2023-04-23T21:47:43.388Z,99.90
2023-04-23T21:52:45.821Z,99.90
2023-04-23T21:57:49.242Z,99.90
2023-04-23T22:02:55.199Z,99.90
2023-04-23T22:07:58.268Z,99.90
2023-04-23T22:13:01.732Z,99.90
2023-04-23T22:18:04.856Z,99.90
2023-04-23T22:23:07.303Z,99.90
2023-04-23T22:28:09.743Z,99.90
2023-04-23T22:33:12.223Z,99.90
2023-04-23T22:38:15.802Z,99.90
2023-04-23T22:43:18.532Z,99.90
2023-04-23T22:48:21.392Z,99.90
2023-04-23T22:53:23.835Z,99.90
2023-04-23T22:58:26.515Z,99.90
2023-04-23T23:03:29.038Z,99.90
2023-04-23T23:08:31.711Z,99.90
2023-04-23T23:13:34.552Z,99.90
2023-04-23T23:18:37.332Z,99.90
2023-04-23T23:23:39.934Z,99.90
2023-04-23T23:28:42.468Z,99.90
2023-04-23T23:33:45.185Z,99.90
2023-04-23T23:38:47.644Z,99.90
2023-04-23T23:43:50.135Z,99.90
2023-04-23T23:48:52.656Z,99.90
2023-04-23T23:53:55.162Z,99.90
2023-04-23T23:58:57.609Z,99.90
